This is the latest recevied weather packets stored in our database for station/object OE7AOT-2. If no packets are shown the sender has not sent any weather packets the latest 10 day(s).
| Time | Temp. | Humidity | Pressure | Rain* | Wind** | Luminosity | Snow |
|---|---|---|---|---|---|---|---|
| 1777473129 | 36.67° C | 38% | 927.7 hPa | 0 mm | - | - | - |
| 1777473060 | 36.11° C | 39% | 927.7 hPa | 0 mm | - | - | - |
| 1777472992 | 35° C | 40% | 927.6 hPa | 0 mm | - | - | - |
| 1777472923 | 33.33° C | 42% | 927.7 hPa | 0 mm | - | - | - |
| 1777472855 | 32.22° C | 43% | 927.7 hPa | 0 mm | - | - | - |
| 1777472786 | 30.56° C | 45% | 927.6 hPa | 0 mm | - | - | - |
| 1777472718 | 28.33° C | 47% | 927.8 hPa | 0 mm | - | - | - |
| 1777472649 | 25.56° C | 51% | 927.7 hPa | 0 mm | - | - | - |
| 1777472581 | 22.78° C | 53% | 927.8 hPa | 0 mm | - | - | - |
| 1777472512 | 21.67° C | 54% | 927.9 hPa | 0 mm | - | - | - |
| 1777472444 | 22.22° C | 54% | 927.8 hPa | 0 mm | - | - | - |
| 1777472375 | 22.78° C | 54% | 927.9 hPa | 0 mm | - | - | - |
| 1777472307 | 22.78° C | 54% | 927.8 hPa | 0 mm | - | - | - |
| 1777472239 | 21.11° C | 56% | 927.9 hPa | 0 mm | - | - | - |
| 1777472170 | 20° C | 57% | 927.6 hPa | 0 mm | - | - | - |
| 1777472103 | 20° C | 56% | 927.8 hPa | 0 mm | - | - | - |
| 1777472033 | 20.56° C | 55% | 927.6 hPa | 0 mm | - | - | - |
| 1777471965 | 21.11° C | 55% | 927.8 hPa | 0 mm | - | - | - |
| 1777471897 | 22.22° C | 54% | 927.8 hPa | 0 mm | - | - | - |
| 1777471828 | 22.78° C | 53% | 927.8 hPa | 0 mm | - | - | - |
| 1777471760 | 22.22° C | 53% | 927.6 hPa | 0 mm | - | - | - |
| 1777471691 | 23.33° C | 53% | 927.8 hPa | 0 mm | - | - | - |
| 1777471623 | 23.89° C | 52% | 927.7 hPa | 0 mm | - | - | - |
| 1777471554 | 24.44° C | 52% | 927.8 hPa | 0 mm | - | - | - |
| 1777471486 | 22.22° C | 55% | 927.9 hPa | 0 mm | - | - | - |
* Rain latest hour (hover to see other rain measurements)
** Current wind speed in m/s (hover to see current wind gust speed)